sensor_id;sensor_type;location;lat;lon;timestamp;P1;durP1;ratioP1;P2;durP2;ratioP2
80868;SDS011;70295;40.182;44.498;2023-08-31T00:01:26;6.9;;;4.8;;
80868;SDS011;70295;40.182;44.498;2023-08-31T00:03:25;7.9;;;5.5;;
80868;SDS011;70295;40.182;44.498;2023-08-31T00:05:25;6.3;;;5;;
80868;SDS011;70295;40.182;44.498;2023-08-31T00:07:25;7.1;;;5.2;;
80868;SDS011;70295;40.182;44.498;2023-08-31T00:09:26;6.6;;;5.4;;
80868;SDS011;70295;40.182;44.498;2023-08-31T00:11:25;6.9;;;5.3;;
80868;SDS011;70295;40.182;44.498;2023-08-31T00:13:25;7.1;;;5.5;;
80868;SDS011;70295;40.182;44.498;2023-08-31T00:15:25;6.8;;;5.3;;
80868;SDS011;70295;40.182;44.498;2023-08-31T00:17:26;7.3;;;5;;
80868;SDS011;70295;40.182;44.498;2023-08-31T00:19:25;6.7;;;4.9;;
80868;SDS011;70295;40.182;44.498;2023-08-31T00:21:25;9.4;;;5.8;;
80868;SDS011;70295;40.182;44.498;2023-08-31T00:23:25;6.1;;;5.3;;
80868;SDS011;70295;40.182;44.498;2023-08-31T00:25:25;7.6;;;5.7;;
80868;SDS011;70295;40.182;44.498;2023-08-31T00:27:25;7.2;;;5.7;;
80868;SDS011;70295;40.182;44.498;2023-08-31T00:29:25;8.8;;;5.9;;
80868;SDS011;70295;40.182;44.498;2023-08-31T00:31:25;7.8;;;5.1;;
80868;SDS011;70295;40.182;44.498;2023-08-31T00:33:27;7.2;;;5.5;;
80868;SDS011;70295;40.182;44.498;2023-08-31T00:35:25;7.9;;;5.2;;
80868;SDS011;70295;40.182;44.498;2023-08-31T00:37:26;9.5;;;6.1;;
80868;SDS011;70295;40.182;44.498;2023-08-31T00:39:25;8.2;;;5.7;;
80868;SDS011;70295;40.182;44.498;2023-08-31T00:41:25;8;;;6.2;;
80868;SDS011;70295;40.182;44.498;2023-08-31T00:43:25;6.9;;;6.1;;
80868;SDS011;70295;40.182;44.498;2023-08-31T00:45:25;10.5;;;5.9;;
80868;SDS011;70295;40.182;44.498;2023-08-31T00:47:25;8.3;;;6.2;;
80868;SDS011;70295;40.182;44.498;2023-08-31T00:49:25;8.7;;;6.4;;
80868;SDS011;70295;40.182;44.498;2023-08-31T00:51:25;10.6;;;6.8;;
80868;SDS011;70295;40.182;44.498;2023-08-31T00:59:38;10.2;;;7.5;;
80868;SDS011;70295;40.182;44.498;2023-08-31T01:02:01;11.2;;;7.6;;
80868;SDS011;70295;40.182;44.498;2023-08-31T01:14:02;10.1;;;7.7;;
80868;SDS011;70295;40.182;44.498;2023-08-31T01:15:58;12;;;8;;
80868;SDS011;70295;40.182;44.498;2023-08-31T01:17:57;12.1;;;8.1;;
80868;SDS011;70295;40.182;44.498;2023-08-31T01:19:57;9.5;;;7.9;;
80868;SDS011;70295;40.182;44.498;2023-08-31T01:21:57;12.8;;;7.6;;
80868;SDS011;70295;40.182;44.498;2023-08-31T01:23:56;11.1;;;7.8;;
80868;SDS011;70295;40.182;44.498;2023-08-31T01:25:55;11;;;7.6;;
80868;SDS011;70295;40.182;44.498;2023-08-31T01:27:56;9.3;;;8.2;;
80868;SDS011;70295;40.182;44.498;2023-08-31T01:29:57;11.7;;;7.6;;
80868;SDS011;70295;40.182;44.498;2023-08-31T01:38:58;10.1;;;7.6;;
80868;SDS011;70295;40.182;44.498;2023-08-31T01:42:53;10.4;;;7.4;;
80868;SDS011;70295;40.182;44.498;2023-08-31T01:50:35;8.6;;;7.3;;
80868;SDS011;70295;40.182;44.498;2023-08-31T01:52:35;10.8;;;7.3;;
80868;SDS011;70295;40.182;44.498;2023-08-31T01:54:35;10.6;;;7.3;;
80868;SDS011;70295;40.182;44.498;2023-08-31T01:56:35;10.2;;;7.4;;
80868;SDS011;70295;40.182;44.498;2023-08-31T01:58:35;10.8;;;7.2;;
80868;SDS011;70295;40.182;44.498;2023-08-31T02:00:35;10.6;;;7;;
80868;SDS011;70295;40.182;44.498;2023-08-31T02:02:35;10.4;;;7.2;;
80868;SDS011;70295;40.182;44.498;2023-08-31T02:04:35;10.9;;;7.2;;
80868;SDS011;70295;40.182;44.498;2023-08-31T02:07:49;10.8;;;6.9;;
80868;SDS011;70295;40.182;44.498;2023-08-31T02:10:21;8.8;;;7.1;;
80868;SDS011;70295;40.182;44.498;2023-08-31T02:12:21;9.5;;;6.6;;
80868;SDS011;70295;40.182;44.498;2023-08-31T02:14:21;10.3;;;6.9;;
80868;SDS011;70295;40.182;44.498;2023-08-31T02:16:21;10.5;;;6.9;;
80868;SDS011;70295;40.182;44.498;2023-08-31T02:18:21;10.2;;;7;;
80868;SDS011;70295;40.182;44.498;2023-08-31T02:20:21;10.6;;;6.9;;
80868;SDS011;70295;40.182;44.498;2023-08-31T02:22:21;8.6;;;6.9;;
80868;SDS011;70295;40.182;44.498;2023-08-31T02:24:21;9.9;;;7.1;;
80868;SDS011;70295;40.182;44.498;2023-08-31T02:26:21;11.2;;;7.3;;
80868;SDS011;70295;40.182;44.498;2023-08-31T02:28:21;10.8;;;7.1;;
80868;SDS011;70295;40.182;44.498;2023-08-31T02:30:21;10.8;;;7.8;;
80868;SDS011;70295;40.182;44.498;2023-08-31T02:38:30;8.5;;;7.2;;
80868;SDS011;70295;40.182;44.498;2023-08-31T02:47:35;11.2;;;7;;
80868;SDS011;70295;40.182;44.498;2023-08-31T02:49:35;10.9;;;7.2;;
80868;SDS011;70295;40.182;44.498;2023-08-31T02:56:03;10.2;;;7.1;;
80868;SDS011;70295;40.182;44.498;2023-08-31T02:58:03;11.2;;;6.9;;
80868;SDS011;70295;40.182;44.498;2023-08-31T03:00:03;10.7;;;7.4;;
80868;SDS011;70295;40.182;44.498;2023-08-31T03:02:57;10.9;;;7.1;;
80868;SDS011;70295;40.182;44.498;2023-08-31T03:04:57;12.5;;;7.6;;
80868;SDS011;70295;40.182;44.498;2023-08-31T03:06:57;10.9;;;7;;
80868;SDS011;70295;40.182;44.498;2023-08-31T03:08:57;9.7;;;7.2;;
80868;SDS011;70295;40.182;44.498;2023-08-31T03:10:57;8.6;;;6.7;;
80868;SDS011;70295;40.182;44.498;2023-08-31T03:12:56;10.3;;;7;;
80868;SDS011;70295;40.182;44.498;2023-08-31T03:14:56;12.4;;;6.6;;
80868;SDS011;70295;40.182;44.498;2023-08-31T03:16:57;13.1;;;7.3;;
80868;SDS011;70295;40.182;44.498;2023-08-31T03:18:56;12.6;;;7.2;;
80868;SDS011;70295;40.182;44.498;2023-08-31T03:20:56;11;;;7;;
80868;SDS011;70295;40.182;44.498;2023-08-31T03:22:56;10.9;;;7.3;;
80868;SDS011;70295;40.182;44.498;2023-08-31T03:24:56;9.9;;;7.1;;
80868;SDS011;70295;40.182;44.498;2023-08-31T03:26:56;10.7;;;6.2;;
80868;SDS011;70295;40.182;44.498;2023-08-31T03:28:56;11.4;;;6.9;;
80868;SDS011;70295;40.182;44.498;2023-08-31T03:30:57;10.7;;;6.7;;
80868;SDS011;70295;40.182;44.498;2023-08-31T03:32:56;12.7;;;7;;
80868;SDS011;70295;40.182;44.498;2023-08-31T03:34:56;10.6;;;7.1;;
80868;SDS011;70295;40.182;44.498;2023-08-31T03:36:57;10.5;;;7.4;;
80868;SDS011;70295;40.182;44.498;2023-08-31T03:38:57;11.9;;;7.6;;
80868;SDS011;70295;40.182;44.498;2023-08-31T03:40:57;10.1;;;7.3;;
80868;SDS011;70295;40.182;44.498;2023-08-31T03:42:56;10.9;;;7.3;;
80868;SDS011;70295;40.182;44.498;2023-08-31T03:44:56;10.5;;;6.9;;
80868;SDS011;70295;40.182;44.498;2023-08-31T03:46:56;12.1;;;7.3;;
80868;SDS011;70295;40.182;44.498;2023-08-31T03:48:56;11.1;;;6.9;;
80868;SDS011;70295;40.182;44.498;2023-08-31T03:50:56;10.3;;;7.6;;
80868;SDS011;70295;40.182;44.498;2023-08-31T03:52:56;11.9;;;6.9;;
80868;SDS011;70295;40.182;44.498;2023-08-31T03:54:56;13.5;;;7.4;;
80868;SDS011;70295;40.182;44.498;2023-08-31T03:56:56;11.2;;;7.1;;
80868;SDS011;70295;40.182;44.498;2023-08-31T03:58:56;12.2;;;7.3;;
80868;SDS011;70295;40.182;44.498;2023-08-31T04:00:56;13.2;;;7.2;;
80868;SDS011;70295;40.182;44.498;2023-08-31T04:02:56;11.7;;;7.4;;
80868;SDS011;70295;40.182;44.498;2023-08-31T04:04:57;12.5;;;7.4;;
80868;SDS011;70295;40.182;44.498;2023-08-31T04:06:56;12.1;;;6.9;;
80868;SDS011;70295;40.182;44.498;2023-08-31T04:08:56;10.4;;;6.8;;
80868;SDS011;70295;40.182;44.498;2023-08-31T04:10:56;13.4;;;7.2;;
80868;SDS011;70295;40.182;44.498;2023-08-31T04:12:56;9.9;;;6.7;;
80868;SDS011;70295;40.182;44.498;2023-08-31T04:14:56;9.7;;;7.1;;
80868;SDS011;70295;40.182;44.498;2023-08-31T04:16:58;9.6;;;6.8;;
80868;SDS011;70295;40.182;44.498;2023-08-31T04:18:57;12.6;;;7;;
80868;SDS011;70295;40.182;44.498;2023-08-31T04:20:56;12.2;;;7.6;;
80868;SDS011;70295;40.182;44.498;2023-08-31T04:22:56;12;;;7.4;;
80868;SDS011;70295;40.182;44.498;2023-08-31T04:24:56;10.6;;;7.4;;
80868;SDS011;70295;40.182;44.498;2023-08-31T04:26:56;10.7;;;7.4;;
80868;SDS011;70295;40.182;44.498;2023-08-31T04:28:56;11;;;7.3;;
80868;SDS011;70295;40.182;44.498;2023-08-31T04:30:56;9.2;;;6.7;;
80868;SDS011;70295;40.182;44.498;2023-08-31T04:32:56;11.2;;;7.1;;
80868;SDS011;70295;40.182;44.498;2023-08-31T04:34:56;10.9;;;6.6;;
80868;SDS011;70295;40.182;44.498;2023-08-31T04:36:57;10.6;;;6.9;;
80868;SDS011;70295;40.182;44.498;2023-08-31T04:38:56;9.9;;;6.8;;
80868;SDS011;70295;40.182;44.498;2023-08-31T04:40:58;12.9;;;7;;
80868;SDS011;70295;40.182;44.498;2023-08-31T04:42:56;10.8;;;6.6;;
80868;SDS011;70295;40.182;44.498;2023-08-31T04:44:56;10.7;;;6.5;;
80868;SDS011;70295;40.182;44.498;2023-08-31T04:46:56;11.1;;;6.5;;
80868;SDS011;70295;40.182;44.498;2023-08-31T04:48:56;10.6;;;7.1;;
80868;SDS011;70295;40.182;44.498;2023-08-31T04:50:58;9.2;;;6.8;;
80868;SDS011;70295;40.182;44.498;2023-08-31T04:52:56;10.9;;;6.4;;
80868;SDS011;70295;40.182;44.498;2023-08-31T04:54:56;10.1;;;7;;
80868;SDS011;70295;40.182;44.498;2023-08-31T04:56:56;9.2;;;6.7;;
80868;SDS011;70295;40.182;44.498;2023-08-31T04:58:56;12.6;;;7.1;;
80868;SDS011;70295;40.182;44.498;2023-08-31T05:00:56;9.8;;;7.2;;
80868;SDS011;70295;40.182;44.498;2023-08-31T05:02:56;8.1;;;6.5;;
80868;SDS011;70295;40.182;44.498;2023-08-31T05:04:57;11.1;;;7;;
80868;SDS011;70295;40.182;44.498;2023-08-31T05:06:56;10.6;;;6.8;;
80868;SDS011;70295;40.182;44.498;2023-08-31T05:08:57;11.6;;;7.7;;
80868;SDS011;70295;40.182;44.498;2023-08-31T05:10:56;12.3;;;7.3;;
80868;SDS011;70295;40.182;44.498;2023-08-31T05:12:57;11.5;;;7.3;;
80868;SDS011;70295;40.182;44.498;2023-08-31T05:14:56;12.2;;;7.4;;
80868;SDS011;70295;40.182;44.498;2023-08-31T05:16:56;10.9;;;7.5;;
80868;SDS011;70295;40.182;44.498;2023-08-31T05:18:56;13.8;;;7.5;;
80868;SDS011;70295;40.182;44.498;2023-08-31T05:20:56;12.5;;;7.7;;
80868;SDS011;70295;40.182;44.498;2023-08-31T05:22:56;13;;;7.7;;
80868;SDS011;70295;40.182;44.498;2023-08-31T05:32:12;13.2;;;6.6;;
80868;SDS011;70295;40.182;44.498;2023-08-31T05:34:15;11;;;7.4;;
80868;SDS011;70295;40.182;44.498;2023-08-31T05:36:12;9.9;;;6.8;;
80868;SDS011;70295;40.182;44.498;2023-08-31T05:38:12;11.1;;;7.1;;
80868;SDS011;70295;40.182;44.498;2023-08-31T05:46:31;9.1;;;6.8;;
80868;SDS011;70295;40.182;44.498;2023-08-31T05:48:31;8;;;6.1;;
80868;SDS011;70295;40.182;44.498;2023-08-31T05:51:31;9.7;;;6.2;;
80868;SDS011;70295;40.182;44.498;2023-08-31T05:53:31;10.7;;;6.1;;
80868;SDS011;70295;40.182;44.498;2023-08-31T05:55:31;11;;;6.1;;
80868;SDS011;70295;40.182;44.498;2023-08-31T05:57:31;9.9;;;5.8;;
80868;SDS011;70295;40.182;44.498;2023-08-31T05:59:31;7.8;;;6.1;;
80868;SDS011;70295;40.182;44.498;2023-08-31T06:01:31;8.4;;;6.2;;
80868;SDS011;70295;40.182;44.498;2023-08-31T06:03:31;11.6;;;6.6;;
80868;SDS011;70295;40.182;44.498;2023-08-31T06:05:31;9.7;;;6.2;;
80868;SDS011;70295;40.182;44.498;2023-08-31T06:07:31;10.8;;;6.4;;
80868;SDS011;70295;40.182;44.498;2023-08-31T06:09:31;10.3;;;6.2;;
80868;SDS011;70295;40.182;44.498;2023-08-31T06:11:31;8.5;;;6.2;;
80868;SDS011;70295;40.182;44.498;2023-08-31T06:13:31;8.9;;;6.4;;
80868;SDS011;70295;40.182;44.498;2023-08-31T06:15:31;11.2;;;6.5;;
80868;SDS011;70295;40.182;44.498;2023-08-31T06:17:31;9.1;;;6.1;;
80868;SDS011;70295;40.182;44.498;2023-08-31T06:19:31;9;;;6.2;;
80868;SDS011;70295;40.182;44.498;2023-08-31T06:21:31;9.7;;;6.1;;
80868;SDS011;70295;40.182;44.498;2023-08-31T06:23:31;9.2;;;6;;
80868;SDS011;70295;40.182;44.498;2023-08-31T06:25:31;9.3;;;6.6;;
80868;SDS011;70295;40.182;44.498;2023-08-31T06:27:31;8;;;6.2;;
80868;SDS011;70295;40.182;44.498;2023-08-31T06:29:31;9.6;;;7.1;;
80868;SDS011;70295;40.182;44.498;2023-08-31T06:31:31;11.2;;;6.9;;
80868;SDS011;70295;40.182;44.498;2023-08-31T06:33:31;10.2;;;7.4;;
80868;SDS011;70295;40.182;44.498;2023-08-31T06:35:31;13.5;;;7;;
80868;SDS011;70295;40.182;44.498;2023-08-31T06:37:31;10.1;;;7.1;;
80868;SDS011;70295;40.182;44.498;2023-08-31T06:39:31;9.7;;;7.2;;
80868;SDS011;70295;40.182;44.498;2023-08-31T06:41:31;11.4;;;7.6;;
80868;SDS011;70295;40.182;44.498;2023-08-31T06:43:31;9.9;;;7.4;;
80868;SDS011;70295;40.182;44.498;2023-08-31T06:45:31;11.6;;;7.3;;
80868;SDS011;70295;40.182;44.498;2023-08-31T06:47:32;11.3;;;7.3;;
80868;SDS011;70295;40.182;44.498;2023-08-31T06:49:31;10.9;;;7.2;;
80868;SDS011;70295;40.182;44.498;2023-08-31T06:53:31;13.8;;;8.6;;
80868;SDS011;70295;40.182;44.498;2023-08-31T06:55:31;13.3;;;7.6;;
80868;SDS011;70295;40.182;44.498;2023-08-31T06:57:31;11.1;;;7.5;;
80868;SDS011;70295;40.182;44.498;2023-08-31T06:59:31;10.8;;;7.6;;
80868;SDS011;70295;40.182;44.498;2023-08-31T07:01:31;12.1;;;7.3;;
80868;SDS011;70295;40.182;44.498;2023-08-31T07:03:32;12.5;;;8.1;;
80868;SDS011;70295;40.182;44.498;2023-08-31T07:05:33;13.7;;;7.8;;
80868;SDS011;70295;40.182;44.498;2023-08-31T07:07:31;10.3;;;7.3;;
80868;SDS011;70295;40.182;44.498;2023-08-31T07:09:31;10.9;;;7.5;;
80868;SDS011;70295;40.182;44.498;2023-08-31T07:11:31;14.5;;;8.1;;
80868;SDS011;70295;40.182;44.498;2023-08-31T07:13:31;13.1;;;6.8;;
80868;SDS011;70295;40.182;44.498;2023-08-31T07:15:31;8.3;;;6.6;;
80868;SDS011;70295;40.182;44.498;2023-08-31T07:17:31;10.5;;;6.8;;
80868;SDS011;70295;40.182;44.498;2023-08-31T07:19:31;9.2;;;7;;
80868;SDS011;70295;40.182;44.498;2023-08-31T07:21:31;9.7;;;6.9;;
80868;SDS011;70295;40.182;44.498;2023-08-31T07:23:31;9.8;;;6.7;;
80868;SDS011;70295;40.182;44.498;2023-08-31T07:25:31;8.7;;;6.3;;
80868;SDS011;70295;40.182;44.498;2023-08-31T07:27:31;8;;;6;;
80868;SDS011;70295;40.182;44.498;2023-08-31T07:29:31;9.3;;;6.8;;
80868;SDS011;70295;40.182;44.498;2023-08-31T07:31:31;7.7;;;6.6;;
80868;SDS011;70295;40.182;44.498;2023-08-31T07:33:31;7.5;;;6.1;;
80868;SDS011;70295;40.182;44.498;2023-08-31T07:35:31;9.7;;;6.7;;
80868;SDS011;70295;40.182;44.498;2023-08-31T07:37:31;9.3;;;6.4;;
80868;SDS011;70295;40.182;44.498;2023-08-31T07:39:31;10.5;;;7.2;;
80868;SDS011;70295;40.182;44.498;2023-08-31T07:41:31;11.8;;;7.3;;
80868;SDS011;70295;40.182;44.498;2023-08-31T07:43:31;9.8;;;6.9;;
80868;SDS011;70295;40.182;44.498;2023-08-31T07:45:31;9.4;;;6.6;;
80868;SDS011;70295;40.182;44.498;2023-08-31T07:47:31;10.5;;;7.3;;
80868;SDS011;70295;40.182;44.498;2023-08-31T07:49:31;8.8;;;7.1;;
80868;SDS011;70295;40.182;44.498;2023-08-31T07:51:31;9.3;;;6.8;;
80868;SDS011;70295;40.182;44.498;2023-08-31T07:53:31;11.6;;;7.1;;
80868;SDS011;70295;40.182;44.498;2023-08-31T07:55:31;7.9;;;6.3;;
80868;SDS011;70295;40.182;44.498;2023-08-31T07:57:31;10.2;;;7;;
80868;SDS011;70295;40.182;44.498;2023-08-31T07:59:31;10.2;;;7.6;;
80868;SDS011;70295;40.182;44.498;2023-08-31T08:01:31;9.5;;;7;;
80868;SDS011;70295;40.182;44.498;2023-08-31T08:03:31;9.6;;;6.7;;
80868;SDS011;70295;40.182;44.498;2023-08-31T08:05:31;9.1;;;6.4;;
80868;SDS011;70295;40.182;44.498;2023-08-31T08:07:31;10.4;;;7.7;;
80868;SDS011;70295;40.182;44.498;2023-08-31T08:09:31;8.7;;;6.7;;
80868;SDS011;70295;40.182;44.498;2023-08-31T08:11:31;12.1;;;6.7;;
80868;SDS011;70295;40.182;44.498;2023-08-31T08:13:31;9.6;;;7;;
80868;SDS011;70295;40.182;44.498;2023-08-31T08:15:31;10.5;;;7.1;;
80868;SDS011;70295;40.182;44.498;2023-08-31T08:17:31;12.9;;;7.5;;
80868;SDS011;70295;40.182;44.498;2023-08-31T08:19:31;8;;;6.8;;
80868;SDS011;70295;40.182;44.498;2023-08-31T08:21:31;8.8;;;7.4;;
80868;SDS011;70295;40.182;44.498;2023-08-31T08:23:32;10.5;;;6.7;;
80868;SDS011;70295;40.182;44.498;2023-08-31T08:25:31;10.6;;;6.6;;
80868;SDS011;70295;40.182;44.498;2023-08-31T08:27:31;11.5;;;7.4;;
80868;SDS011;70295;40.182;44.498;2023-08-31T08:29:31;10.6;;;7.4;;
80868;SDS011;70295;40.182;44.498;2023-08-31T08:31:31;10.5;;;7;;
80868;SDS011;70295;40.182;44.498;2023-08-31T08:33:31;10;;;6.8;;
80868;SDS011;70295;40.182;44.498;2023-08-31T08:35:31;14.5;;;7.3;;
80868;SDS011;70295;40.182;44.498;2023-08-31T08:37:31;13.6;;;7.2;;
80868;SDS011;70295;40.182;44.498;2023-08-31T08:39:31;11.4;;;7.3;;
80868;SDS011;70295;40.182;44.498;2023-08-31T08:41:32;10.8;;;7.4;;
80868;SDS011;70295;40.182;44.498;2023-08-31T08:43:31;10.2;;;8;;
80868;SDS011;70295;40.182;44.498;2023-08-31T08:45:37;12.2;;;7.2;;
80868;SDS011;70295;40.182;44.498;2023-08-31T08:47:32;10.8;;;6.8;;
80868;SDS011;70295;40.182;44.498;2023-08-31T08:49:32;8.4;;;6.7;;
80868;SDS011;70295;40.182;44.498;2023-08-31T08:51:32;11.4;;;7.5;;
80868;SDS011;70295;40.182;44.498;2023-08-31T08:53:31;10;;;6.4;;
80868;SDS011;70295;40.182;44.498;2023-08-31T08:55:31;9.5;;;7.4;;
80868;SDS011;70295;40.182;44.498;2023-08-31T08:57:33;10.8;;;7.5;;
80868;SDS011;70295;40.182;44.498;2023-08-31T08:59:31;10;;;7.3;;
80868;SDS011;70295;40.182;44.498;2023-08-31T09:01:32;10.4;;;7.2;;
80868;SDS011;70295;40.182;44.498;2023-08-31T09:03:31;11.7;;;8;;
80868;SDS011;70295;40.182;44.498;2023-08-31T09:05:33;19.2;;;8.6;;
80868;SDS011;70295;40.182;44.498;2023-08-31T09:09:31;11.7;;;7.5;;
80868;SDS011;70295;40.182;44.498;2023-08-31T09:11:31;10.6;;;7.5;;
80868;SDS011;70295;40.182;44.498;2023-08-31T09:13:31;14.9;;;7.1;;
80868;SDS011;70295;40.182;44.498;2023-08-31T09:17:42;11.4;;;7;;
80868;SDS011;70295;40.182;44.498;2023-08-31T09:19:31;11.3;;;7.6;;
80868;SDS011;70295;40.182;44.498;2023-08-31T09:23:31;10;;;6.9;;
80868;SDS011;70295;40.182;44.498;2023-08-31T09:25:31;12.3;;;7.2;;
80868;SDS011;70295;40.182;44.498;2023-08-31T09:27:31;9.2;;;6.8;;
80868;SDS011;70295;40.182;44.498;2023-08-31T09:29:32;10.2;;;6.9;;
80868;SDS011;70295;40.182;44.498;2023-08-31T09:31:31;9.8;;;6.8;;
80868;SDS011;70295;40.182;44.498;2023-08-31T09:33:31;11.3;;;6.7;;
80868;SDS011;70295;40.182;44.498;2023-08-31T09:35:31;9.4;;;6.4;;
80868;SDS011;70295;40.182;44.498;2023-08-31T09:37:31;8.4;;;6.9;;
80868;SDS011;70295;40.182;44.498;2023-08-31T09:41:31;12.2;;;7;;
80868;SDS011;70295;40.182;44.498;2023-08-31T09:43:31;10.3;;;6.2;;
80868;SDS011;70295;40.182;44.498;2023-08-31T09:45:32;8.2;;;6.1;;
80868;SDS011;70295;40.182;44.498;2023-08-31T09:47:31;9.4;;;6.6;;
80868;SDS011;70295;40.182;44.498;2023-08-31T09:49:31;10.4;;;6.9;;
80868;SDS011;70295;40.182;44.498;2023-08-31T09:51:31;8.9;;;6.8;;
80868;SDS011;70295;40.182;44.498;2023-08-31T09:53:32;10.5;;;6.4;;
80868;SDS011;70295;40.182;44.498;2023-08-31T09:55:31;8.4;;;6.4;;
80868;SDS011;70295;40.182;44.498;2023-08-31T09:57:31;8.5;;;6.5;;
80868;SDS011;70295;40.182;44.498;2023-08-31T09:59:32;9.4;;;6.6;;
80868;SDS011;70295;40.182;44.498;2023-08-31T10:01:31;9.5;;;6.5;;
80868;SDS011;70295;40.182;44.498;2023-08-31T10:03:32;7.6;;;6;;
80868;SDS011;70295;40.182;44.498;2023-08-31T10:05:31;9.2;;;6.6;;
80868;SDS011;70295;40.182;44.498;2023-08-31T10:07:31;7.3;;;6.2;;
80868;SDS011;70295;40.182;44.498;2023-08-31T10:09:32;9.1;;;5.9;;
80868;SDS011;70295;40.182;44.498;2023-08-31T10:11:32;7.2;;;6;;
80868;SDS011;70295;40.182;44.498;2023-08-31T10:13:32;11.7;;;6.4;;
80868;SDS011;70295;40.182;44.498;2023-08-31T10:15:32;8;;;6.2;;
80868;SDS011;70295;40.182;44.498;2023-08-31T10:17:31;7.5;;;5.9;;
80868;SDS011;70295;40.182;44.498;2023-08-31T10:19:31;7.1;;;6.2;;
80868;SDS011;70295;40.182;44.498;2023-08-31T10:21:31;8.5;;;6.3;;
80868;SDS011;70295;40.182;44.498;2023-08-31T10:23:31;9.1;;;6.2;;
80868;SDS011;70295;40.182;44.498;2023-08-31T10:29:31;12.9;;;7.7;;
80868;SDS011;70295;40.182;44.498;2023-08-31T10:31:32;9.3;;;6.3;;
80868;SDS011;70295;40.182;44.498;2023-08-31T10:33:33;8.4;;;6.1;;
80868;SDS011;70295;40.182;44.498;2023-08-31T10:37:31;7.6;;;6.1;;
80868;SDS011;70295;40.182;44.498;2023-08-31T10:45:31;9.7;;;6.3;;
80868;SDS011;70295;40.182;44.498;2023-08-31T10:49:31;8.6;;;5.9;;
80868;SDS011;70295;40.182;44.498;2023-08-31T10:51:32;9.8;;;6.1;;
80868;SDS011;70295;40.182;44.498;2023-08-31T10:53:31;10.3;;;6;;
80868;SDS011;70295;40.182;44.498;2023-08-31T10:55:33;8;;;6;;
80868;SDS011;70295;40.182;44.498;2023-08-31T10:57:32;7.7;;;5.7;;
80868;SDS011;70295;40.182;44.498;2023-08-31T11:03:32;6.8;;;6.1;;
80868;SDS011;70295;40.182;44.498;2023-08-31T11:05:31;8.9;;;6.2;;
80868;SDS011;70295;40.182;44.498;2023-08-31T11:07:31;10.1;;;6.8;;
80868;SDS011;70295;40.182;44.498;2023-08-31T11:09:31;19.9;;;6.7;;
80868;SDS011;70295;40.182;44.498;2023-08-31T11:13:31;6.6;;;5.9;;
80868;SDS011;70295;40.182;44.498;2023-08-31T11:15:31;8.4;;;6.2;;
80868;SDS011;70295;40.182;44.498;2023-08-31T11:17:31;8.7;;;6.1;;
80868;SDS011;70295;40.182;44.498;2023-08-31T11:19:31;6.9;;;5.8;;
80868;SDS011;70295;40.182;44.498;2023-08-31T11:21:31;14.6;;;6.4;;
80868;SDS011;70295;40.182;44.498;2023-08-31T11:23:31;8.5;;;5.6;;
80868;SDS011;70295;40.182;44.498;2023-08-31T11:25:32;9.9;;;5.6;;
80868;SDS011;70295;40.182;44.498;2023-08-31T11:27:31;6.4;;;5.3;;
80868;SDS011;70295;40.182;44.498;2023-08-31T11:29:31;8.3;;;5.3;;
80868;SDS011;70295;40.182;44.498;2023-08-31T11:31:31;7.5;;;5.7;;
80868;SDS011;70295;40.182;44.498;2023-08-31T11:33:32;8.5;;;5.8;;
80868;SDS011;70295;40.182;44.498;2023-08-31T11:35:36;5.8;;;5.2;;
80868;SDS011;70295;40.182;44.498;2023-08-31T11:37:31;7;;;5.2;;
80868;SDS011;70295;40.182;44.498;2023-08-31T11:39:31;6.4;;;5;;
80868;SDS011;70295;40.182;44.498;2023-08-31T11:41:32;9.4;;;5.3;;
80868;SDS011;70295;40.182;44.498;2023-08-31T11:43:31;7.1;;;4.7;;
80868;SDS011;70295;40.182;44.498;2023-08-31T11:45:32;7.1;;;5.2;;
80868;SDS011;70295;40.182;44.498;2023-08-31T11:47:31;6.9;;;5.1;;
80868;SDS011;70295;40.182;44.498;2023-08-31T11:49:31;6.5;;;4.8;;
80868;SDS011;70295;40.182;44.498;2023-08-31T11:51:31;8.1;;;5.3;;
80868;SDS011;70295;40.182;44.498;2023-08-31T11:53:31;8;;;5.6;;
80868;SDS011;70295;40.182;44.498;2023-08-31T11:55:31;7.4;;;5.5;;
80868;SDS011;70295;40.182;44.498;2023-08-31T11:57:31;5.9;;;5;;
80868;SDS011;70295;40.182;44.498;2023-08-31T11:59:31;7.6;;;5.2;;
80868;SDS011;70295;40.182;44.498;2023-08-31T12:01:31;8.1;;;5.5;;
80868;SDS011;70295;40.182;44.498;2023-08-31T12:08:46;7.8;;;6.5;;
80868;SDS011;70295;40.182;44.498;2023-08-31T12:10:45;7.9;;;6.4;;
80868;SDS011;70295;40.182;44.498;2023-08-31T12:12:45;10.5;;;6;;
80868;SDS011;70295;40.182;44.498;2023-08-31T12:14:46;10;;;5.6;;
80868;SDS011;70295;40.182;44.498;2023-08-31T12:16:45;9.2;;;5.5;;
80868;SDS011;70295;40.182;44.498;2023-08-31T12:18:46;7.6;;;6.1;;
80868;SDS011;70295;40.182;44.498;2023-08-31T12:20:46;8.2;;;5.9;;
80868;SDS011;70295;40.182;44.498;2023-08-31T12:22:45;6.7;;;5.3;;
80868;SDS011;70295;40.182;44.498;2023-08-31T12:24:46;8.1;;;5.6;;
80868;SDS011;70295;40.182;44.498;2023-08-31T12:26:45;8.2;;;5.9;;
80868;SDS011;70295;40.182;44.498;2023-08-31T12:34:47;9.9;;;6.6;;
80868;SDS011;70295;40.182;44.498;2023-08-31T12:36:47;10.1;;;7.7;;
80868;SDS011;70295;40.182;44.498;2023-08-31T12:38:47;11.4;;;7.9;;
80868;SDS011;70295;40.182;44.498;2023-08-31T12:40:47;15.3;;;7.9;;
80868;SDS011;70295;40.182;44.498;2023-08-31T12:42:47;11;;;7.5;;
80868;SDS011;70295;40.182;44.498;2023-08-31T12:52:28;11.1;;;6.5;;
80868;SDS011;70295;40.182;44.498;2023-08-31T12:54:28;10.2;;;7.2;;
80868;SDS011;70295;40.182;44.498;2023-08-31T12:56:29;8.4;;;5.8;;
80868;SDS011;70295;40.182;44.498;2023-08-31T12:58:28;8.2;;;6.2;;
80868;SDS011;70295;40.182;44.498;2023-08-31T13:00:28;6.2;;;5.6;;
80868;SDS011;70295;40.182;44.498;2023-08-31T13:02:28;7.2;;;5.7;;
80868;SDS011;70295;40.182;44.498;2023-08-31T13:04:28;8;;;4.9;;
80868;SDS011;70295;40.182;44.498;2023-08-31T13:06:28;10.3;;;6.4;;
80868;SDS011;70295;40.182;44.498;2023-08-31T13:08:28;9.9;;;6.1;;
80868;SDS011;70295;40.182;44.498;2023-08-31T13:10:29;9.4;;;6.6;;
80868;SDS011;70295;40.182;44.498;2023-08-31T13:12:28;9;;;6.5;;
80868;SDS011;70295;40.182;44.498;2023-08-31T13:14:28;11;;;6.1;;
80868;SDS011;70295;40.182;44.498;2023-08-31T13:16:28;9.7;;;6.5;;
80868;SDS011;70295;40.182;44.498;2023-08-31T13:18:28;9.8;;;6.6;;
80868;SDS011;70295;40.182;44.498;2023-08-31T13:20:28;11;;;6.1;;
80868;SDS011;70295;40.182;44.498;2023-08-31T13:22:28;9.1;;;6.2;;
80868;SDS011;70295;40.182;44.498;2023-08-31T13:24:28;8.8;;;5.7;;
80868;SDS011;70295;40.182;44.498;2023-08-31T13:26:28;9.5;;;6.1;;
80868;SDS011;70295;40.182;44.498;2023-08-31T13:28:28;6.6;;;5.3;;
80868;SDS011;70295;40.182;44.498;2023-08-31T13:30:28;8.2;;;5.3;;
80868;SDS011;70295;40.182;44.498;2023-08-31T13:32:28;6.7;;;5.3;;
80868;SDS011;70295;40.182;44.498;2023-08-31T13:34:28;8.9;;;5.4;;
80868;SDS011;70295;40.182;44.498;2023-08-31T13:36:28;7.9;;;5.9;;
80868;SDS011;70295;40.182;44.498;2023-08-31T13:38:28;7.4;;;5.2;;
80868;SDS011;70295;40.182;44.498;2023-08-31T13:40:28;10.5;;;6.2;;
80868;SDS011;70295;40.182;44.498;2023-08-31T13:42:32;8.3;;;5.4;;
80868;SDS011;70295;40.182;44.498;2023-08-31T13:51:13;5.5;;;5;;
80868;SDS011;70295;40.182;44.498;2023-08-31T13:53:13;6.6;;;5.1;;
80868;SDS011;70295;40.182;44.498;2023-08-31T13:55:14;8.1;;;5.2;;
80868;SDS011;70295;40.182;44.498;2023-08-31T13:57:13;5.5;;;4.8;;
80868;SDS011;70295;40.182;44.498;2023-08-31T13:59:14;8.7;;;4.8;;
80868;SDS011;70295;40.182;44.498;2023-08-31T14:01:13;5.2;;;4.6;;
80868;SDS011;70295;40.182;44.498;2023-08-31T14:03:13;6.2;;;4.6;;
80868;SDS011;70295;40.182;44.498;2023-08-31T14:05:13;9.2;;;5.6;;
80868;SDS011;70295;40.182;44.498;2023-08-31T14:07:13;8.9;;;5.4;;
80868;SDS011;70295;40.182;44.498;2023-08-31T14:09:13;7.2;;;4.7;;
80868;SDS011;70295;40.182;44.498;2023-08-31T14:11:13;6.2;;;4.6;;
80868;SDS011;70295;40.182;44.498;2023-08-31T14:13:13;6.2;;;4.4;;
80868;SDS011;70295;40.182;44.498;2023-08-31T14:15:13;6.8;;;4.6;;